createdAt,value
2023-02-14T12:57:40.744Z,10.65
2023-02-14T13:00:14.810Z,11.55
2023-02-14T13:02:56.685Z,12.65
2023-02-14T13:05:54.954Z,12.88
2023-02-14T13:08:24.921Z,13.00
2023-02-14T13:11:01.172Z,11.12
2023-02-14T13:13:40.452Z,11.27
2023-02-14T13:16:27.685Z,11.73
2023-02-14T13:19:13.917Z,12.18
2023-02-14T13:21:41.435Z,12.85
2023-02-14T13:24:22.292Z,10.75
2023-02-14T13:26:54.794Z,12.13
2023-02-14T13:29:24.482Z,13.18
2023-02-14T13:31:54.691Z,11.55
2023-02-14T13:34:32.820Z,12.25
2023-02-14T13:37:01.425Z,12.48
2023-02-14T13:39:43.596Z,12.52
2023-02-14T13:42:11.291Z,11.63
2023-02-14T13:44:46.653Z,11.82
2023-02-14T13:47:17.855Z,9.45
2023-02-14T13:50:01.318Z,10.07
2023-02-14T13:52:46.666Z,11.57
2023-02-14T13:55:23.109Z,10.60
2023-02-14T13:58:13.014Z,9.97
2023-02-14T14:00:47.174Z,11.88
2023-02-14T14:03:28.088Z,10.75
2023-02-14T14:06:09.162Z,11.63
2023-02-14T14:08:43.151Z,10.65
2023-02-14T14:11:22.313Z,12.02
2023-02-14T14:14:02.137Z,11.60
2023-02-14T14:16:30.751Z,11.75
2023-02-14T14:19:09.571Z,13.38
2023-02-14T14:22:04.425Z,11.12
2023-02-14T14:24:39.620Z,12.55
2023-02-14T14:27:25.581Z,11.57
2023-02-14T14:30:04.126Z,10.48
2023-02-14T14:32:37.006Z,11.95
2023-02-14T14:35:23.023Z,13.75
2023-02-14T14:37:53.134Z,12.30
2023-02-14T14:40:26.328Z,12.45
2023-02-14T14:42:53.669Z,12.98
2023-02-14T14:45:26.118Z,12.57
2023-02-14T14:47:55.610Z,12.02
2023-02-14T14:50:24.956Z,12.07
2023-02-14T14:53:14.677Z,9.95
2023-02-14T14:55:44.538Z,12.15
2023-02-14T14:58:32.744Z,9.95
2023-02-14T15:00:59.949Z,10.60
2023-02-14T15:03:29.427Z,8.98
2023-02-14T15:06:22.209Z,9.88
2023-02-14T15:08:52.135Z,11.10
2023-02-14T15:11:42.240Z,13.02
2023-02-14T15:14:15.647Z,10.00
2023-02-14T15:16:50.906Z,11.30
2023-02-14T15:19:34.405Z,9.85
2023-02-14T15:22:02.778Z,10.18
2023-02-14T15:24:31.696Z,11.07
2023-02-14T15:26:58.588Z,12.45
2023-02-14T15:29:28.786Z,12.77
2023-02-14T15:31:58.130Z,11.75
2023-02-14T15:34:29.025Z,10.20
2023-02-14T15:36:59.420Z,13.15
2023-02-14T15:39:33.056Z,13.52
2023-02-14T15:42:00.010Z,12.52
2023-02-14T15:44:27.120Z,10.65
2023-02-14T15:47:05.866Z,10.85
2023-02-14T15:49:37.436Z,11.48
2023-02-14T15:52:06.081Z,13.07
2023-02-14T15:54:38.913Z,12.98
2023-02-14T15:57:08.386Z,12.98
2023-02-14T15:59:36.613Z,12.55
2023-02-14T16:02:29.338Z,13.00
2023-02-14T16:05:03.934Z,12.37
2023-02-14T16:07:30.992Z,12.05
2023-02-14T16:10:22.560Z,12.30
2023-02-14T16:13:01.168Z,12.15
2023-02-14T16:15:32.003Z,13.60
2023-02-14T16:17:59.925Z,12.23
2023-02-14T16:20:26.839Z,13.23
2023-02-14T16:22:54.526Z,12.35
2023-02-14T16:25:21.854Z,12.32
2023-02-14T16:27:48.742Z,13.40
2023-02-14T16:30:17.790Z,13.52
2023-02-14T16:32:50.319Z,13.75
2023-02-14T16:35:20.432Z,12.98
2023-02-14T16:37:47.944Z,13.45
2023-02-14T16:40:16.078Z,12.95
2023-02-14T16:42:43.658Z,13.13
2023-02-14T16:45:19.831Z,13.45
2023-02-14T16:47:47.561Z,13.23
2023-02-14T16:50:15.159Z,14.07
2023-02-14T16:52:43.290Z,13.15
2023-02-14T16:55:17.895Z,12.73
2023-02-14T16:57:46.725Z,12.93
2023-02-14T17:00:14.298Z,13.50
2023-02-14T17:02:44.282Z,13.62
2023-02-14T17:05:11.665Z,14.25
2023-02-14T17:07:41.762Z,13.50
2023-02-14T17:10:11.841Z,13.65
2023-02-14T17:12:42.237Z,14.25
2023-02-14T17:15:13.420Z,13.40
2023-02-14T17:17:40.478Z,14.18
2023-02-14T17:20:08.516Z,14.43
2023-02-14T17:22:36.785Z,14.48
2023-02-14T17:25:05.495Z,15.05
2023-02-14T17:27:34.443Z,14.15
2023-02-14T17:30:01.718Z,14.85
2023-02-14T17:32:28.651Z,14.50
2023-02-14T17:34:56.482Z,15.48
2023-02-14T17:37:23.381Z,15.40
2023-02-14T17:42:16.908Z,13.30
2023-02-14T17:47:14.941Z,17.30
2023-02-14T17:49:42.592Z,24.00
2023-02-14T17:52:09.478Z,22.42
2023-02-14T17:54:39.492Z,18.40
2023-02-14T17:57:07.617Z,17.10
2023-02-14T17:59:35.056Z,16.50
2023-02-14T18:02:01.991Z,16.83
2023-02-14T18:04:30.574Z,16.35
2023-02-14T18:06:57.408Z,16.20
2023-02-14T18:09:25.927Z,15.43
2023-02-14T18:11:52.802Z,15.85
2023-02-14T18:16:46.362Z,15.63
2023-02-14T18:21:44.680Z,13.93
2023-02-14T18:24:12.197Z,14.75
2023-02-14T18:26:40.901Z,15.15
2023-02-14T18:29:08.182Z,14.82
2023-02-14T18:31:37.796Z,15.10
2023-02-14T18:34:05.297Z,15.43
2023-02-14T18:36:32.574Z,15.32
2023-02-14T18:38:59.462Z,15.40
2023-02-14T18:43:53.559Z,15.35
2023-02-14T18:46:25.924Z,15.60
2023-02-14T18:48:53.228Z,14.77
2023-02-14T18:51:26.342Z,15.88
2023-02-14T18:53:55.033Z,16.48
2023-02-14T18:56:24.277Z,15.60
2023-02-14T18:58:54.118Z,17.42
2023-02-14T19:01:24.081Z,17.73
2023-02-14T19:03:53.004Z,17.50
2023-02-14T19:06:20.893Z,19.67
2023-02-14T19:08:48.466Z,17.50
2023-02-14T19:11:23.488Z,17.37
2023-02-14T19:13:53.533Z,17.15
2023-02-14T19:16:32.056Z,16.33
2023-02-14T19:18:59.995Z,18.90
2023-02-14T19:21:30.885Z,16.92
2023-02-14T19:23:58.222Z,17.60
2023-02-14T19:26:27.189Z,17.50
2023-02-14T19:29:00.049Z,17.73
2023-02-14T19:31:27.824Z,18.37
2023-02-14T19:33:54.976Z,21.90
2023-02-14T19:36:24.539Z,18.20
2023-02-14T19:38:52.942Z,19.02
2023-02-14T19:41:25.545Z,18.87
2023-02-14T19:43:52.633Z,18.12
2023-02-14T19:46:20.554Z,18.33
2023-02-14T19:48:47.810Z,18.87
2023-02-14T19:51:25.908Z,17.73
2023-02-14T19:53:53.534Z,18.08
2023-02-14T19:56:26.610Z,16.67
2023-02-14T19:58:54.076Z,17.50
2023-02-14T20:01:51.444Z,17.08
2023-02-14T20:04:21.717Z,17.23
2023-02-14T20:06:49.553Z,17.80
2023-02-14T20:09:24.335Z,17.05
2023-02-14T20:11:54.642Z,16.15
2023-02-14T20:14:26.662Z,16.25
2023-02-14T20:16:55.251Z,15.98
2023-02-14T20:19:24.346Z,15.40
2023-02-14T20:21:51.497Z,17.27
2023-02-14T20:24:26.716Z,16.48
2023-02-14T20:26:54.205Z,15.57
2023-02-14T20:29:21.980Z,16.48
2023-02-14T20:31:51.118Z,16.45
2023-02-14T20:34:19.558Z,17.50
2023-02-14T20:36:53.355Z,17.83
2023-02-14T20:39:22.620Z,18.15
2023-02-14T20:41:50.405Z,17.83
2023-02-14T20:44:21.994Z,16.27
2023-02-14T20:46:51.775Z,20.25
2023-02-14T20:49:19.885Z,19.00
2023-02-14T20:51:46.925Z,18.55
2023-02-14T20:54:13.810Z,19.73
2023-02-14T20:59:08.778Z,16.77
2023-02-14T21:01:36.282Z,17.65
2023-02-14T21:04:03.405Z,18.73
2023-02-14T21:06:32.966Z,17.42
2023-02-14T21:09:00.534Z,18.05
2023-02-14T21:11:27.937Z,18.23
2023-02-14T21:13:59.906Z,19.67
2023-02-14T21:16:27.710Z,18.37
2023-02-14T21:18:59.648Z,19.05
2023-02-14T21:21:32.593Z,18.70
2023-02-14T21:24:01.334Z,16.52
2023-02-14T21:26:29.097Z,17.10
2023-02-14T21:28:55.967Z,18.75
2023-02-14T21:33:55.052Z,16.58
2023-02-14T21:36:23.485Z,18.30
2023-02-14T21:38:51.057Z,18.08
2023-02-14T21:41:20.215Z,17.33
2023-02-14T21:43:49.122Z,17.77
2023-02-14T21:46:18.212Z,16.87
2023-02-14T21:49:04.170Z,16.90
2023-02-14T21:51:31.839Z,17.70
2023-02-14T21:54:02.433Z,17.15
2023-02-14T21:56:29.384Z,16.85
2023-02-14T21:58:56.521Z,16.98
2023-02-14T22:01:25.629Z,17.98
2023-02-14T22:03:52.824Z,18.23
2023-02-14T22:06:20.240Z,17.27
2023-02-14T22:08:47.660Z,17.92
2023-02-14T22:11:15.997Z,17.48
2023-02-14T22:13:43.196Z,16.73
2023-02-14T22:16:12.528Z,17.00
2023-02-14T22:18:39.821Z,17.15
2023-02-14T22:21:11.929Z,16.87
2023-02-14T22:23:39.097Z,16.80
2023-02-14T22:26:13.491Z,16.83
2023-02-14T22:28:45.243Z,16.17
2023-02-14T22:31:12.779Z,16.62
2023-02-14T22:33:40.119Z,15.85
2023-02-14T22:36:08.499Z,15.90
2023-02-14T22:38:35.895Z,16.33
2023-02-14T22:41:07.809Z,16.02
2023-02-14T22:43:35.553Z,14.25
2023-02-14T22:46:05.865Z,14.98
2023-02-14T22:48:35.720Z,15.50
2023-02-14T22:51:20.007Z,15.20
2023-02-14T22:53:47.242Z,14.57
2023-02-14T22:56:19.387Z,14.77
2023-02-14T22:58:46.931Z,14.75
2023-02-14T23:01:18.496Z,14.85
2023-02-14T23:03:45.912Z,15.45
2023-02-14T23:06:14.044Z,14.65
2023-02-14T23:08:45.147Z,15.45
2023-02-14T23:11:18.335Z,14.50
2023-02-14T23:14:04.330Z,14.20
2023-02-14T23:16:50.564Z,14.32
2023-02-14T23:19:41.143Z,13.00
2023-02-14T23:22:11.844Z,14.18
2023-02-14T23:24:39.403Z,13.88
2023-02-14T23:27:07.520Z,14.10
2023-02-14T23:29:34.403Z,13.77
2023-02-14T23:34:30.673Z,13.73
2023-02-14T23:36:57.976Z,14.80
2023-02-14T23:39:24.960Z,12.85
2023-02-14T23:41:51.933Z,13.68
2023-02-14T23:44:22.871Z,13.02
2023-02-14T23:46:51.333Z,12.73
2023-02-14T23:49:18.658Z,12.75
2023-02-14T23:51:46.426Z,12.70
2023-02-14T23:54:13.945Z,14.30
2023-02-14T23:56:41.453Z,12.37
2023-02-14T23:59:08.715Z,13.02
